首页
METAR-TAF:

METAR-TAF

机场 :

L.O. Simenstad Municipal Airport

Osceola, 威斯康辛州, 美国

纬度: 45-18-31N, 经度: 092-41-24W, 海拔: 275米

当前天气观测

该预报发布于18分钟前的17:35 UTC
风速3节,风向西
温度 26°C
湿度 45%
气压 1010 hPa
能見度: 16.1公里
天空无云

METAR: KOEO 041735Z AUTO 28003KT 10SM CLR 26/13 A2982 RMK AO2 T02620134

时间: 12:53 (17:53 UTC)


TAF: 丢失

超过4000个机场的气象观测和天气预报(METAR&TAF报告)。

可查询的气象台以黄色和红色小点在地图上表示。

将鼠标移到小点上方,可查看气象台名称。

然后点击查看天气观测和预报。

如需切换地图:点击带黑十字的绿色按钮放大地图;点击带横线的绿色按钮缩小地图;或者点击绿色箭头查看邻近地区的地图。


METAR-TAF: